createdAt,value
2023-05-03T00:02:12.377Z,13.70
2023-05-03T00:04:46.402Z,14.00
2023-05-03T00:07:19.311Z,12.70
2023-05-03T00:09:51.986Z,12.70
2023-05-03T00:12:26.921Z,13.90
2023-05-03T00:15:00.039Z,13.60
2023-05-03T00:17:33.040Z,13.80
2023-05-03T00:20:06.312Z,13.30
2023-05-03T00:22:39.103Z,13.50
2023-05-03T00:25:17.414Z,14.60
2023-05-03T00:27:50.001Z,14.30
2023-05-03T00:30:22.888Z,14.40
2023-05-03T00:32:55.549Z,13.90
2023-05-03T00:35:30.207Z,14.20
2023-05-03T00:38:04.466Z,14.50
2023-05-03T00:40:37.584Z,14.10
2023-05-03T00:43:12.392Z,15.30
2023-05-03T00:45:47.713Z,14.60
2023-05-03T00:48:20.466Z,15.80
2023-05-03T00:50:54.638Z,15.30
2023-05-03T00:53:27.530Z,15.00
2023-05-03T00:56:02.408Z,15.80
2023-05-03T00:58:36.404Z,15.10
2023-05-03T01:01:09.481Z,16.10
2023-05-03T01:03:44.342Z,16.70
2023-05-03T01:06:24.293Z,17.60
2023-05-03T01:09:04.120Z,15.90
2023-05-03T01:11:49.582Z,17.40
2023-05-03T01:14:29.755Z,16.50
2023-05-03T01:17:07.278Z,15.80
2023-05-03T01:19:48.041Z,15.00
2023-05-03T01:22:34.263Z,15.50
2023-05-03T01:25:12.930Z,15.90
2023-05-03T01:27:46.560Z,16.10
2023-05-03T01:30:26.631Z,15.50
2023-05-03T01:33:07.097Z,15.10
2023-05-03T01:36:06.587Z,14.40
2023-05-03T01:38:43.153Z,13.20
2023-05-03T01:41:19.493Z,15.20
2023-05-03T01:43:52.997Z,14.60
2023-05-03T01:46:25.736Z,13.50
2023-05-03T01:48:58.826Z,13.50
2023-05-03T01:51:31.289Z,13.40
2023-05-03T01:54:03.895Z,15.90
2023-05-03T01:56:37.741Z,16.10
2023-05-03T01:59:12.128Z,16.20
2023-05-03T02:01:44.792Z,14.70
2023-05-03T02:04:17.304Z,14.00
2023-05-03T02:06:49.985Z,13.50
2023-05-03T02:09:22.830Z,12.10
2023-05-03T02:12:03.588Z,13.30
2023-05-03T02:14:36.380Z,13.00
2023-05-03T02:17:10.554Z,13.10
2023-05-03T02:19:43.543Z,12.20
2023-05-03T02:22:18.086Z,13.40
2023-05-03T02:24:50.717Z,14.50
2023-05-03T02:27:23.629Z,14.60
2023-05-03T02:29:59.260Z,17.00
2023-05-03T02:32:32.219Z,14.30
2023-05-03T02:35:06.624Z,14.80
2023-05-03T02:37:39.152Z,13.40
2023-05-03T02:40:15.525Z,12.90
2023-05-03T02:42:48.322Z,15.50
2023-05-03T02:45:21.873Z,13.80
2023-05-03T02:47:54.729Z,14.00
2023-05-03T02:50:28.690Z,16.80
2023-05-03T02:53:01.228Z,14.90
2023-05-03T02:55:33.664Z,16.70
2023-05-03T02:58:10.260Z,15.60
2023-05-03T03:00:43.197Z,15.90
2023-05-03T03:03:16.008Z,16.10
2023-05-03T03:05:48.563Z,19.00
2023-05-03T03:08:21.113Z,19.10
2023-05-03T03:10:56.330Z,21.00
2023-05-03T03:13:41.465Z,19.70
2023-05-03T03:16:17.079Z,19.50
2023-05-03T03:18:52.193Z,20.70
2023-05-03T03:21:29.333Z,18.70
2023-05-03T03:24:01.876Z,16.90
2023-05-03T03:26:34.477Z,17.10
2023-05-03T03:29:07.203Z,15.50
2023-05-03T03:31:43.937Z,19.30
2023-05-03T03:34:16.823Z,15.80
2023-05-03T03:36:49.382Z,15.40
2023-05-03T03:39:22.701Z,14.70
2023-05-03T03:41:55.412Z,13.60
2023-05-03T03:44:31.035Z,14.70
2023-05-03T03:47:04.307Z,16.10
2023-05-03T03:49:37.390Z,15.30
2023-05-03T03:52:10.403Z,15.10
2023-05-03T03:54:42.904Z,15.50
2023-05-03T03:57:15.322Z,14.00
2023-05-03T03:59:51.462Z,13.00
2023-05-03T04:02:24.697Z,16.40
2023-05-03T04:04:57.525Z,14.00
2023-05-03T04:07:30.918Z,14.30
2023-05-03T04:10:05.043Z,13.70
2023-05-03T04:12:38.167Z,15.80
2023-05-03T04:15:12.982Z,14.10
2023-05-03T04:17:45.516Z,16.30
2023-05-03T04:20:18.406Z,14.10
2023-05-03T04:22:53.913Z,13.30
2023-05-03T04:25:31.289Z,15.30
2023-05-03T04:28:09.474Z,17.00
2023-05-03T04:30:45.305Z,15.20
2023-05-03T04:33:19.887Z,14.20
2023-05-03T04:35:54.177Z,14.80
2023-05-03T04:38:26.955Z,14.10
2023-05-03T04:41:00.910Z,13.80
2023-05-03T04:43:34.788Z,15.60
2023-05-03T04:46:08.680Z,15.20
2023-05-03T04:48:41.979Z,15.00
2023-05-03T04:51:15.064Z,17.50
2023-05-03T04:53:48.072Z,13.30
2023-05-03T04:56:26.500Z,14.90
2023-05-03T04:59:05.747Z,13.80
2023-05-03T05:01:39.966Z,12.80
2023-05-03T05:04:13.038Z,15.10
2023-05-03T05:06:49.499Z,14.60
2023-05-03T05:09:27.133Z,13.70
2023-05-03T05:12:01.879Z,14.70
2023-05-03T05:14:38.933Z,14.40
2023-05-03T05:17:12.721Z,15.20
2023-05-03T05:19:45.548Z,13.50
2023-05-03T05:22:19.966Z,15.50
2023-05-03T05:24:57.613Z,13.30
2023-05-03T05:27:31.475Z,14.80
2023-05-03T05:30:13.158Z,14.10
2023-05-03T05:32:46.626Z,15.40
2023-05-03T05:35:20.466Z,15.60
2023-05-03T05:37:54.328Z,14.00
2023-05-03T05:40:28.861Z,14.40
2023-05-03T05:43:02.643Z,13.30
2023-05-03T05:45:36.310Z,13.90
2023-05-03T05:48:09.744Z,15.10
2023-05-03T05:50:42.470Z,14.50
2023-05-03T05:53:25.012Z,15.30
2023-05-03T05:56:03.106Z,14.20
2023-05-03T05:58:38.627Z,14.90
2023-05-03T06:01:13.395Z,14.50
2023-05-03T06:03:47.932Z,13.40
2023-05-03T06:06:20.463Z,15.00
2023-05-03T06:08:52.644Z,15.90
2023-05-03T06:11:26.831Z,17.40
2023-05-03T06:14:00.774Z,15.20
2023-05-03T06:16:33.694Z,17.80
2023-05-03T06:19:06.253Z,16.50
2023-05-03T06:21:39.013Z,15.90
2023-05-03T06:24:11.772Z,16.80
2023-05-03T06:26:45.200Z,16.70
2023-05-03T06:29:18.357Z,15.70
2023-05-03T06:31:51.078Z,19.60
2023-05-03T06:34:23.761Z,17.70
2023-05-03T06:36:58.049Z,16.70
2023-05-03T06:39:31.954Z,15.90
2023-05-03T06:42:04.716Z,15.80
2023-05-03T06:44:41.684Z,22.40
2023-05-03T06:47:14.821Z,17.90
2023-05-03T06:49:48.823Z,16.10
2023-05-03T06:52:24.521Z,16.30
2023-05-03T06:54:57.235Z,16.10
2023-05-03T06:57:29.895Z,16.10
2023-05-03T07:00:08.959Z,19.40
2023-05-03T07:02:41.668Z,18.40
2023-05-03T07:05:14.731Z,17.40
2023-05-03T07:07:47.620Z,17.90
2023-05-03T07:10:20.480Z,19.00
2023-05-03T07:12:54.622Z,20.50
2023-05-03T07:15:28.327Z,17.90
2023-05-03T07:18:01.362Z,26.80
2023-05-03T07:20:33.988Z,26.50
2023-05-03T07:23:06.822Z,21.00
2023-05-03T07:25:41.873Z,21.00
2023-05-03T07:28:14.599Z,19.70
2023-05-03T07:30:47.390Z,19.30
2023-05-03T07:33:20.408Z,21.00
2023-05-03T07:35:52.909Z,18.90
2023-05-03T07:38:26.234Z,21.70
2023-05-03T07:40:58.823Z,20.80
2023-05-03T07:43:31.814Z,18.90
2023-05-03T07:46:04.726Z,16.40
2023-05-03T07:48:37.032Z,15.40
2023-05-03T07:51:11.260Z,16.50
2023-05-03T07:53:44.297Z,15.80
2023-05-03T07:56:17.086Z,14.00
2023-05-03T07:58:53.986Z,17.30
2023-05-03T08:01:38.582Z,16.10
2023-05-03T08:04:11.305Z,14.90
2023-05-03T08:06:44.283Z,16.90
2023-05-03T08:09:16.817Z,14.60
2023-05-03T08:11:49.268Z,14.70
2023-05-03T08:14:23.924Z,14.20
2023-05-03T08:16:56.593Z,15.80
2023-05-03T08:19:29.296Z,14.50
2023-05-03T08:22:03.361Z,14.20
2023-05-03T08:24:35.859Z,14.20
2023-05-03T08:27:09.718Z,14.00
2023-05-03T08:29:42.253Z,14.00
2023-05-03T08:32:14.950Z,13.30
2023-05-03T08:34:48.476Z,14.20
2023-05-03T08:37:23.037Z,14.10
2023-05-03T08:39:56.041Z,15.30
2023-05-03T08:42:31.815Z,13.10
2023-05-03T08:45:04.950Z,13.60
2023-05-03T08:47:42.003Z,14.20
2023-05-03T08:50:16.643Z,13.80
2023-05-03T08:52:49.453Z,13.70
2023-05-03T08:55:22.299Z,13.90
2023-05-03T08:57:54.623Z,12.70
2023-05-03T09:00:32.170Z,13.50
2023-05-03T09:03:09.170Z,13.90
2023-05-03T09:05:44.495Z,16.30
2023-05-03T09:08:17.263Z,14.80
2023-05-03T09:10:50.011Z,12.70
2023-05-03T09:13:23.909Z,13.60
2023-05-03T09:15:59.985Z,15.00
2023-05-03T09:18:45.455Z,11.50
2023-05-03T09:21:22.037Z,11.00
2023-05-03T09:23:55.249Z,10.50
2023-05-03T09:26:37.246Z,10.80
2023-05-03T09:29:10.809Z,10.60
2023-05-03T09:32:03.255Z,10.80
2023-05-03T09:34:37.226Z,11.70
2023-05-03T09:37:10.056Z,13.60
2023-05-03T09:39:44.176Z,13.20
2023-05-03T09:42:19.794Z,11.40
2023-05-03T09:44:53.093Z,11.80
2023-05-03T09:47:26.203Z,11.30
2023-05-03T09:49:59.147Z,8.30
2023-05-03T09:52:32.520Z,8.50
2023-05-03T09:55:09.534Z,9.40
2023-05-03T09:57:43.747Z,8.60
2023-05-03T10:00:20.740Z,8.40
2023-05-03T10:02:55.761Z,8.40
2023-05-03T10:05:34.879Z,8.30
2023-05-03T10:08:13.979Z,8.40
2023-05-03T10:10:54.495Z,8.40
2023-05-03T10:13:28.942Z,8.90
2023-05-03T10:16:06.980Z,8.50
2023-05-03T10:18:44.901Z,8.50
2023-05-03T10:21:26.209Z,10.00
2023-05-03T10:24:16.462Z,7.20
2023-05-03T10:26:51.840Z,7.30
2023-05-03T10:29:49.322Z,8.20
2023-05-03T10:35:17.114Z,9.60
2023-05-03T10:40:26.696Z,8.20
2023-05-03T10:43:00.270Z,7.70
2023-05-03T10:45:33.546Z,6.10
2023-05-03T10:48:23.285Z,5.20
2023-05-03T10:50:56.159Z,7.10
2023-05-03T10:53:45.581Z,7.50
2023-05-03T10:56:18.045Z,5.80
2023-05-03T10:58:57.793Z,6.40
2023-05-03T11:01:32.526Z,6.10
2023-05-03T11:04:09.417Z,6.70
2023-05-03T11:06:42.647Z,7.60
2023-05-03T11:09:15.831Z,8.90
2023-05-03T11:11:48.464Z,6.70
2023-05-03T11:14:21.352Z,8.10
2023-05-03T11:16:57.479Z,7.70
2023-05-03T11:19:38.064Z,6.50
2023-05-03T11:22:12.583Z,8.60
2023-05-03T11:24:45.093Z,7.10
2023-05-03T11:27:24.662Z,6.50
2023-05-03T11:29:59.430Z,5.80
2023-05-03T11:32:34.297Z,5.90
2023-05-03T11:35:11.390Z,6.90
2023-05-03T11:37:45.464Z,6.20
2023-05-03T11:40:21.809Z,7.30
2023-05-03T11:42:59.497Z,5.10
2023-05-03T11:45:45.588Z,6.00
2023-05-03T11:48:22.888Z,6.10
2023-05-03T11:51:11.510Z,6.30
2023-05-03T11:53:54.012Z,6.90
2023-05-03T11:56:27.662Z,6.60
2023-05-03T11:59:01.107Z,6.60
2023-05-03T12:01:36.831Z,6.60
2023-05-03T12:04:10.438Z,6.20
2023-05-03T12:06:49.329Z,6.20
2023-05-03T12:09:28.114Z,8.50
2023-05-03T12:12:06.048Z,6.70
2023-05-03T12:15:00.297Z,7.20
2023-05-03T12:17:46.506Z,8.30
2023-05-03T12:23:04.325Z,10.10
2023-05-03T12:25:40.465Z,12.50
2023-05-03T12:28:22.748Z,14.20
2023-05-03T12:30:58.701Z,8.00
2023-05-03T12:33:37.155Z,7.50
2023-05-03T12:36:14.860Z,6.80
2023-05-03T12:41:52.276Z,6.50
2023-05-03T12:44:23.093Z,6.50
2023-05-03T12:47:09.820Z,7.10
2023-05-03T12:49:53.123Z,6.80
2023-05-03T12:55:03.853Z,7.60
2023-05-03T12:57:37.986Z,8.00
2023-05-03T13:00:14.930Z,8.30
2023-05-03T13:05:35.913Z,8.00
2023-05-03T13:08:10.564Z,7.80
2023-05-03T13:10:47.902Z,6.50
2023-05-03T13:13:21.221Z,7.90
2023-05-03T13:15:54.622Z,7.40
2023-05-03T13:18:29.620Z,8.90
2023-05-03T13:21:02.367Z,8.00
2023-05-03T13:23:36.758Z,7.80
2023-05-03T13:26:09.360Z,7.40
2023-05-03T13:28:43.656Z,9.70
2023-05-03T13:31:16.613Z,8.20
2023-05-03T13:33:49.344Z,7.60
2023-05-03T13:36:26.725Z,7.80
2023-05-03T13:39:02.026Z,9.00
2023-05-03T13:41:34.751Z,6.90
2023-05-03T13:44:08.114Z,7.50
2023-05-03T13:46:43.585Z,8.60
2023-05-03T13:49:18.986Z,7.40
2023-05-03T13:51:54.410Z,8.10
2023-05-03T13:54:27.169Z,10.40
2023-05-03T13:57:02.235Z,10.00
2023-05-03T13:59:37.917Z,7.70
2023-05-03T14:02:13.325Z,8.60
2023-05-03T14:04:46.489Z,8.10
2023-05-03T14:07:19.475Z,9.70
2023-05-03T14:09:52.199Z,9.00
2023-05-03T14:12:26.379Z,8.60
2023-05-03T14:15:05.698Z,7.70
2023-05-03T14:17:38.323Z,8.80
2023-05-03T14:20:13.167Z,8.90
2023-05-03T14:22:45.894Z,10.50
2023-05-03T14:25:18.544Z,9.90
2023-05-03T14:27:52.850Z,9.00
2023-05-03T14:30:25.622Z,10.40
2023-05-03T14:32:58.646Z,8.70
2023-05-03T14:35:32.230Z,11.20
2023-05-03T14:38:07.112Z,10.60
2023-05-03T14:40:40.407Z,9.80
2023-05-03T14:43:13.218Z,8.90
2023-05-03T14:45:46.094Z,11.40
2023-05-03T14:48:29.569Z,9.50
2023-05-03T14:51:02.286Z,10.30
2023-05-03T14:53:55.235Z,9.60
2023-05-03T14:56:27.902Z,8.50
2023-05-03T14:59:02.608Z,8.80
2023-05-03T15:01:38.281Z,9.20
2023-05-03T15:04:11.046Z,9.90
2023-05-03T15:06:43.755Z,10.20
2023-05-03T15:09:16.355Z,10.00
2023-05-03T15:11:50.993Z,11.10
2023-05-03T15:14:26.725Z,10.00
2023-05-03T15:16:59.075Z,11.40
2023-05-03T15:19:32.530Z,11.00
2023-05-03T15:22:07.941Z,11.20
2023-05-03T15:24:46.648Z,12.70
2023-05-03T15:27:27.344Z,12.60
2023-05-03T15:30:00.017Z,16.00
2023-05-03T15:32:54.778Z,17.00
2023-05-03T15:35:28.066Z,19.00
2023-05-03T15:38:00.535Z,17.00
2023-05-03T15:40:33.817Z,13.90
2023-05-03T15:43:09.075Z,12.20
2023-05-03T15:45:41.877Z,11.50
2023-05-03T15:48:14.518Z,12.20
2023-05-03T15:50:47.455Z,12.80
2023-05-03T15:53:20.140Z,11.40
2023-05-03T15:55:57.101Z,11.90
2023-05-03T15:58:30.605Z,12.00
2023-05-03T16:01:05.328Z,13.30
2023-05-03T16:03:37.820Z,13.80
2023-05-03T16:06:10.950Z,12.80
2023-05-03T16:08:44.645Z,14.30
2023-05-03T16:11:17.683Z,12.80
2023-05-03T16:13:52.953Z,10.70
2023-05-03T16:16:26.043Z,10.20
2023-05-03T16:19:00.163Z,10.00
2023-05-03T16:21:35.681Z,10.80
2023-05-03T16:24:14.092Z,10.70
2023-05-03T16:26:46.949Z,11.00
2023-05-03T16:29:20.623Z,12.30
2023-05-03T16:31:53.852Z,10.50
2023-05-03T16:34:29.528Z,12.20
2023-05-03T16:37:02.345Z,12.30
2023-05-03T16:39:35.582Z,12.00
2023-05-03T16:42:11.698Z,12.10
2023-05-03T16:44:44.589Z,13.80
2023-05-03T16:47:17.325Z,15.60
2023-05-03T16:49:52.106Z,14.90
2023-05-03T16:52:25.530Z,13.90
2023-05-03T16:55:08.012Z,14.10
2023-05-03T16:57:45.621Z,13.60
2023-05-03T17:00:22.074Z,14.00
2023-05-03T17:02:54.938Z,14.10
2023-05-03T17:05:33.297Z,13.30
2023-05-03T17:08:09.888Z,14.20
2023-05-03T17:10:45.746Z,13.20
2023-05-03T17:13:18.548Z,13.00
2023-05-03T17:16:01.396Z,13.80
2023-05-03T17:18:38.725Z,11.30
2023-05-03T17:21:14.673Z,12.50
2023-05-03T17:23:52.229Z,12.90
2023-05-03T17:26:35.561Z,11.70
2023-05-03T17:29:24.583Z,13.30
2023-05-03T17:32:01.290Z,15.20
2023-05-03T17:34:45.130Z,13.70
2023-05-03T17:37:20.577Z,15.50
2023-05-03T17:39:53.511Z,15.20
2023-05-03T17:42:26.039Z,15.50
2023-05-03T17:44:59.111Z,14.70
2023-05-03T17:47:31.937Z,15.00
2023-05-03T17:50:05.130Z,19.60
2023-05-03T17:52:40.707Z,25.80
2023-05-03T17:55:23.525Z,24.50
2023-05-03T17:57:56.239Z,22.70
2023-05-03T18:00:37.236Z,23.50
2023-05-03T18:03:13.364Z,20.90
2023-05-03T18:05:56.146Z,21.70
2023-05-03T18:08:41.877Z,20.20
2023-05-03T18:11:25.173Z,19.80
2023-05-03T18:14:09.131Z,20.00
2023-05-03T18:17:03.826Z,21.00
2023-05-03T18:19:36.394Z,20.60
2023-05-03T18:22:10.279Z,20.10
2023-05-03T18:25:07.731Z,23.00
2023-05-03T18:27:43.589Z,21.20
2023-05-03T18:30:19.028Z,20.50
2023-05-03T18:32:51.675Z,19.60
2023-05-03T18:35:25.669Z,25.00
2023-05-03T18:37:59.272Z,22.20
2023-05-03T18:40:34.302Z,39.40
2023-05-03T18:43:18.379Z,27.20
2023-05-03T18:46:11.441Z,28.70
2023-05-03T18:48:44.306Z,26.70
2023-05-03T18:51:20.059Z,29.40
2023-05-03T18:53:52.698Z,29.00
2023-05-03T18:56:26.536Z,31.20
2023-05-03T18:58:58.977Z,31.30
2023-05-03T19:01:31.729Z,31.00
2023-05-03T19:04:08.173Z,31.00
2023-05-03T19:06:44.614Z,36.30
2023-05-03T19:09:18.170Z,35.60
2023-05-03T19:12:11.909Z,30.80
2023-05-03T19:14:48.312Z,33.50
2023-05-03T19:17:20.822Z,27.40
2023-05-03T19:20:07.250Z,29.70
2023-05-03T19:22:55.417Z,23.00
2023-05-03T19:25:40.812Z,25.30
2023-05-03T19:28:16.720Z,26.10
2023-05-03T19:31:03.485Z,30.10
2023-05-03T19:33:39.675Z,26.20
2023-05-03T19:36:15.313Z,23.30
2023-05-03T19:38:48.073Z,22.40
2023-05-03T19:41:23.604Z,25.70
2023-05-03T19:44:06.791Z,23.80
2023-05-03T19:46:49.869Z,26.00
2023-05-03T19:49:24.009Z,24.50
2023-05-03T19:51:56.874Z,22.40
2023-05-03T19:54:33.402Z,23.60
2023-05-03T20:00:04.903Z,20.10
2023-05-03T20:02:38.134Z,19.10
2023-05-03T20:05:12.519Z,22.20
2023-05-03T20:07:45.095Z,19.20
2023-05-03T20:10:18.046Z,21.70
2023-05-03T20:12:50.778Z,20.30
2023-05-03T20:15:23.186Z,21.60
2023-05-03T20:17:57.446Z,21.30
2023-05-03T20:20:30.869Z,21.90
2023-05-03T20:23:03.501Z,20.80
2023-05-03T20:25:35.738Z,23.20
2023-05-03T20:28:09.140Z,22.90
2023-05-03T20:30:41.759Z,22.60
2023-05-03T20:33:14.609Z,21.20
2023-05-03T20:35:47.245Z,19.60
2023-05-03T20:38:19.683Z,20.40
2023-05-03T20:40:52.180Z,20.20
2023-05-03T20:43:25.168Z,20.70
2023-05-03T20:45:58.737Z,22.90
2023-05-03T20:48:32.832Z,21.50
2023-05-03T20:51:09.068Z,22.00
2023-05-03T20:53:41.922Z,24.90
2023-05-03T20:56:14.625Z,31.00
2023-05-03T20:58:47.980Z,34.40
2023-05-03T21:01:20.672Z,28.80
2023-05-03T21:03:55.437Z,28.80
2023-05-03T21:06:28.476Z,31.70
2023-05-03T21:09:01.186Z,33.00
2023-05-03T21:11:36.464Z,30.60
2023-05-03T21:14:11.481Z,32.40
2023-05-03T21:16:44.312Z,29.70
2023-05-03T21:19:19.598Z,28.60
2023-05-03T21:21:52.253Z,30.30
2023-05-03T21:24:27.649Z,26.60
2023-05-03T21:27:04.619Z,34.40
2023-05-03T21:29:38.090Z,27.20
2023-05-03T21:32:11.079Z,27.90
2023-05-03T21:34:44.335Z,24.50
2023-05-03T21:37:19.132Z,26.70
2023-05-03T21:40:01.466Z,27.10
2023-05-03T21:42:38.882Z,26.30
2023-05-03T21:45:13.600Z,26.90
2023-05-03T21:47:46.417Z,27.30
2023-05-03T21:50:19.648Z,29.80
2023-05-03T21:52:55.710Z,29.70
2023-05-03T21:55:28.402Z,29.70
2023-05-03T21:58:01.355Z,29.40
2023-05-03T22:00:36.247Z,37.00
2023-05-03T22:03:09.238Z,30.20
2023-05-03T22:05:43.232Z,31.30
2023-05-03T22:08:18.243Z,51.60
2023-05-03T22:10:50.656Z,230.30
2023-05-03T22:13:28.004Z,81.70
2023-05-03T22:16:06.233Z,85.70
2023-05-03T22:18:53.045Z,51.00
2023-05-03T22:21:26.139Z,47.30
2023-05-03T22:24:00.147Z,51.60
2023-05-03T22:26:39.304Z,41.80
2023-05-03T22:29:18.207Z,40.00
2023-05-03T22:31:54.943Z,38.60
2023-05-03T22:34:47.712Z,35.40
2023-05-03T22:37:20.386Z,35.30
2023-05-03T22:39:56.104Z,39.20
2023-05-03T22:42:31.614Z,36.10
2023-05-03T22:45:04.597Z,36.40
2023-05-03T22:47:37.525Z,34.30
2023-05-03T22:50:12.244Z,33.10
2023-05-03T22:52:44.751Z,34.60
2023-05-03T22:55:17.444Z,35.10
2023-05-03T22:57:49.881Z,32.90
2023-05-03T23:00:22.878Z,33.70
2023-05-03T23:02:55.752Z,34.20
2023-05-03T23:05:30.850Z,34.30
2023-05-03T23:08:03.527Z,33.80
2023-05-03T23:10:36.074Z,33.10
2023-05-03T23:13:09.192Z,32.00
2023-05-03T23:15:42.036Z,29.30
2023-05-03T23:18:14.646Z,27.10
2023-05-03T23:20:48.968Z,29.30
2023-05-03T23:23:21.297Z,28.30
2023-05-03T23:26:04.323Z,25.50
2023-05-03T23:28:37.626Z,25.90
2023-05-03T23:31:12.306Z,28.70
2023-05-03T23:33:48.779Z,27.00
2023-05-03T23:36:21.784Z,26.60
2023-05-03T23:38:54.554Z,25.90
2023-05-03T23:41:27.288Z,26.70
2023-05-03T23:44:10.854Z,25.50
2023-05-03T23:46:43.493Z,26.90
2023-05-03T23:49:16.413Z,24.10
2023-05-03T23:51:48.822Z,26.90
2023-05-03T23:54:22.666Z,23.30
2023-05-03T23:56:55.584Z,26.30
2023-05-03T23:59:28.623Z,23.70
